sensor_id;sensor_type;location;lat;lon;timestamp;temperature;humidity
33492;DHT22;20010;51.488;7.232;2022-07-29T00:02:28;19.00;93.30
33492;DHT22;20010;51.488;7.232;2022-07-29T00:04:55;19.00;93.40
33492;DHT22;20010;51.488;7.232;2022-07-29T00:07:22;19.00;93.30
33492;DHT22;20010;51.488;7.232;2022-07-29T00:09:48;19.00;93.70
33492;DHT22;20010;51.488;7.232;2022-07-29T00:12:19;18.90;93.20
33492;DHT22;20010;51.488;7.232;2022-07-29T00:14:53;19.00;93.50
33492;DHT22;20010;51.488;7.232;2022-07-29T00:17:22;18.90;93.10
33492;DHT22;20010;51.488;7.232;2022-07-29T00:19:48;18.80;93.30
33492;DHT22;20010;51.488;7.232;2022-07-29T00:22:15;18.80;93.60
33492;DHT22;20010;51.488;7.232;2022-07-29T00:24:42;18.80;93.60
33492;DHT22;20010;51.488;7.232;2022-07-29T00:27:09;18.80;94.00
33492;DHT22;20010;51.488;7.232;2022-07-29T00:29:36;18.70;93.50
33492;DHT22;20010;51.488;7.232;2022-07-29T00:32:03;18.80;93.60
33492;DHT22;20010;51.488;7.232;2022-07-29T00:34:30;18.70;93.60
33492;DHT22;20010;51.488;7.232;2022-07-29T00:37:16;18.80;93.60
33492;DHT22;20010;51.488;7.232;2022-07-29T00:39:43;18.70;93.60
33492;DHT22;20010;51.488;7.232;2022-07-29T00:42:11;18.70;93.60
33492;DHT22;20010;51.488;7.232;2022-07-29T00:44:39;18.70;93.70
33492;DHT22;20010;51.488;7.232;2022-07-29T00:47:08;18.70;93.90
33492;DHT22;20010;51.488;7.232;2022-07-29T00:49:35;18.70;93.70
33492;DHT22;20010;51.488;7.232;2022-07-29T00:52:04;18.70;93.90
33492;DHT22;20010;51.488;7.232;2022-07-29T00:54:33;18.70;93.90
33492;DHT22;20010;51.488;7.232;2022-07-29T00:57:00;18.60;93.90
33492;DHT22;20010;51.488;7.232;2022-07-29T00:59:27;18.60;94.00
33492;DHT22;20010;51.488;7.232;2022-07-29T01:02:02;18.60;93.90
33492;DHT22;20010;51.488;7.232;2022-07-29T01:04:30;18.60;94.10
33492;DHT22;20010;51.488;7.232;2022-07-29T01:06:57;18.50;93.90
33492;DHT22;20010;51.488;7.232;2022-07-29T01:09:26;18.50;94.20
33492;DHT22;20010;51.488;7.232;2022-07-29T01:12:18;18.50;94.50
33492;DHT22;20010;51.488;7.232;2022-07-29T01:14:47;18.50;94.30
33492;DHT22;20010;51.488;7.232;2022-07-29T01:17:22;18.40;94.30
33492;DHT22;20010;51.488;7.232;2022-07-29T01:20:18;18.40;94.40
33492;DHT22;20010;51.488;7.232;2022-07-29T01:31:39;18.30;94.90
33492;DHT22;20010;51.488;7.232;2022-07-29T01:40:03;18.20;95.00
33492;DHT22;20010;51.488;7.232;2022-07-29T01:42:36;18.20;95.20
33492;DHT22;20010;51.488;7.232;2022-07-29T01:45:23;18.10;95.20
33492;DHT22;20010;51.488;7.232;2022-07-29T01:48:16;18.10;95.30
33492;DHT22;20010;51.488;7.232;2022-07-29T01:50:52;18.10;95.40
33492;DHT22;20010;51.488;7.232;2022-07-29T01:53:35;18.10;95.60
33492;DHT22;20010;51.488;7.232;2022-07-29T01:56:04;18.10;95.60
33492;DHT22;20010;51.488;7.232;2022-07-29T01:58:35;18.10;95.70
33492;DHT22;20010;51.488;7.232;2022-07-29T02:01:04;18.10;95.60
33492;DHT22;20010;51.488;7.232;2022-07-29T02:03:33;18.00;95.80
33492;DHT22;20010;51.488;7.232;2022-07-29T02:06:03;18.00;95.80
33492;DHT22;20010;51.488;7.232;2022-07-29T02:08:32;17.90;95.90
33492;DHT22;20010;51.488;7.232;2022-07-29T02:11:00;17.90;96.10
33492;DHT22;20010;51.488;7.232;2022-07-29T02:13:28;17.80;96.10
33492;DHT22;20010;51.488;7.232;2022-07-29T02:15:57;17.80;96.20
33492;DHT22;20010;51.488;7.232;2022-07-29T02:18:27;17.80;96.40
33492;DHT22;20010;51.488;7.232;2022-07-29T02:20:56;17.80;96.50
33492;DHT22;20010;51.488;7.232;2022-07-29T02:23:25;17.70;96.50
33492;DHT22;20010;51.488;7.232;2022-07-29T02:25:56;17.70;96.60
33492;DHT22;20010;51.488;7.232;2022-07-29T02:28:26;17.70;96.80
33492;DHT22;20010;51.488;7.232;2022-07-29T02:30:57;17.80;97.00
33492;DHT22;20010;51.488;7.232;2022-07-29T02:33:26;17.70;96.90
33492;DHT22;20010;51.488;7.232;2022-07-29T02:35:54;17.70;97.00
33492;DHT22;20010;51.488;7.232;2022-07-29T02:38:22;17.70;97.10
33492;DHT22;20010;51.488;7.232;2022-07-29T02:41:12;17.60;97.20
33492;DHT22;20010;51.488;7.232;2022-07-29T02:43:40;17.60;97.30
33492;DHT22;20010;51.488;7.232;2022-07-29T02:46:13;17.60;97.40
33492;DHT22;20010;51.488;7.232;2022-07-29T02:49:13;17.60;97.50
33492;DHT22;20010;51.488;7.232;2022-07-29T02:51:51;17.60;97.60
33492;DHT22;20010;51.488;7.232;2022-07-29T02:54:26;17.60;97.70
33492;DHT22;20010;51.488;7.232;2022-07-29T02:56:58;17.60;97.70
33492;DHT22;20010;51.488;7.232;2022-07-29T02:59:27;17.50;98.00
33492;DHT22;20010;51.488;7.232;2022-07-29T03:01:58;17.50;98.00
33492;DHT22;20010;51.488;7.232;2022-07-29T03:04:27;17.50;98.00
33492;DHT22;20010;51.488;7.232;2022-07-29T03:06:58;17.50;98.00
33492;DHT22;20010;51.488;7.232;2022-07-29T03:09:26;17.50;98.00
33492;DHT22;20010;51.488;7.232;2022-07-29T03:11:55;17.50;98.30
33492;DHT22;20010;51.488;7.232;2022-07-29T03:14:23;17.50;98.20
33492;DHT22;20010;51.488;7.232;2022-07-29T03:16:51;17.50;98.30
33492;DHT22;20010;51.488;7.232;2022-07-29T03:19:19;17.40;98.50
33492;DHT22;20010;51.488;7.232;2022-07-29T03:21:47;17.50;98.60
33492;DHT22;20010;51.488;7.232;2022-07-29T03:24:46;17.50;98.70
33492;DHT22;20010;51.488;7.232;2022-07-29T03:27:13;17.50;98.80
33492;DHT22;20010;51.488;7.232;2022-07-29T03:29:40;17.40;98.90
33492;DHT22;20010;51.488;7.232;2022-07-29T03:32:15;17.50;99.00
33492;DHT22;20010;51.488;7.232;2022-07-29T03:34:49;17.50;99.10
33492;DHT22;20010;51.488;7.232;2022-07-29T03:37:16;17.50;99.00
33492;DHT22;20010;51.488;7.232;2022-07-29T03:39:43;17.50;99.10
33492;DHT22;20010;51.488;7.232;2022-07-29T03:42:13;17.50;99.20
33492;DHT22;20010;51.488;7.232;2022-07-29T03:44:42;17.40;99.30
33492;DHT22;20010;51.488;7.232;2022-07-29T03:47:09;17.50;99.40
33492;DHT22;20010;51.488;7.232;2022-07-29T03:49:37;17.50;99.50
33492;DHT22;20010;51.488;7.232;2022-07-29T03:52:06;17.30;99.60
33492;DHT22;20010;51.488;7.232;2022-07-29T03:54:33;17.10;99.90
33492;DHT22;20010;51.488;7.232;2022-07-29T03:57:01;17.00;99.90
33492;DHT22;20010;51.488;7.232;2022-07-29T03:59:30;17.00;99.90
33492;DHT22;20010;51.488;7.232;2022-07-29T04:02:00;17.00;99.90
33492;DHT22;20010;51.488;7.232;2022-07-29T04:04:28;16.90;99.90
33492;DHT22;20010;51.488;7.232;2022-07-29T04:06:55;16.80;99.90
33492;DHT22;20010;51.488;7.232;2022-07-29T04:09:22;16.80;99.90
33492;DHT22;20010;51.488;7.232;2022-07-29T04:11:49;16.90;99.90
33492;DHT22;20010;51.488;7.232;2022-07-29T04:14:32;16.90;99.90
33492;DHT22;20010;51.488;7.232;2022-07-29T04:17:01;16.90;99.90
33492;DHT22;20010;51.488;7.232;2022-07-29T04:19:28;16.90;99.90
33492;DHT22;20010;51.488;7.232;2022-07-29T04:21:56;16.90;99.90
33492;DHT22;20010;51.488;7.232;2022-07-29T04:24:23;16.90;99.90
33492;DHT22;20010;51.488;7.232;2022-07-29T04:26:50;16.90;99.90
33492;DHT22;20010;51.488;7.232;2022-07-29T04:29:17;17.00;99.90
33492;DHT22;20010;51.488;7.232;2022-07-29T04:31:44;17.00;99.90
33492;DHT22;20010;51.488;7.232;2022-07-29T04:34:11;16.90;99.90
33492;DHT22;20010;51.488;7.232;2022-07-29T04:36:39;16.90;99.90
33492;DHT22;20010;51.488;7.232;2022-07-29T04:39:06;17.00;99.90
33492;DHT22;20010;51.488;7.232;2022-07-29T04:41:33;16.90;99.90
33492;DHT22;20010;51.488;7.232;2022-07-29T04:44:00;16.90;99.90
33492;DHT22;20010;51.488;7.232;2022-07-29T04:46:33;16.90;99.90
33492;DHT22;20010;51.488;7.232;2022-07-29T04:49:02;16.80;99.90
33492;DHT22;20010;51.488;7.232;2022-07-29T04:51:29;16.70;99.90
33492;DHT22;20010;51.488;7.232;2022-07-29T04:53:56;16.70;99.90
33492;DHT22;20010;51.488;7.232;2022-07-29T04:56:23;16.60;99.90
33492;DHT22;20010;51.488;7.232;2022-07-29T04:58:50;16.60;99.90
33492;DHT22;20010;51.488;7.232;2022-07-29T05:01:17;16.60;99.90
33492;DHT22;20010;51.488;7.232;2022-07-29T05:03:44;16.60;99.90
33492;DHT22;20010;51.488;7.232;2022-07-29T05:06:11;16.50;99.90
33492;DHT22;20010;51.488;7.232;2022-07-29T05:08:38;16.40;99.90
33492;DHT22;20010;51.488;7.232;2022-07-29T05:11:07;16.40;99.90
33492;DHT22;20010;51.488;7.232;2022-07-29T05:13:38;16.40;99.90
33492;DHT22;20010;51.488;7.232;2022-07-29T05:16:11;16.50;99.90
33492;DHT22;20010;51.488;7.232;2022-07-29T05:18:39;16.50;99.90
33492;DHT22;20010;51.488;7.232;2022-07-29T05:21:06;16.50;99.90
33492;DHT22;20010;51.488;7.232;2022-07-29T05:23:33;16.50;99.90
33492;DHT22;20010;51.488;7.232;2022-07-29T05:26:00;16.60;99.90
33492;DHT22;20010;51.488;7.232;2022-07-29T05:28:27;16.60;99.90
33492;DHT22;20010;51.488;7.232;2022-07-29T05:30:53;16.60;99.90
33492;DHT22;20010;51.488;7.232;2022-07-29T05:33:20;16.60;99.90
33492;DHT22;20010;51.488;7.232;2022-07-29T05:36:04;16.60;99.90
33492;DHT22;20010;51.488;7.232;2022-07-29T05:38:32;16.60;99.90
33492;DHT22;20010;51.488;7.232;2022-07-29T05:40:59;16.70;99.90
33492;DHT22;20010;51.488;7.232;2022-07-29T05:43:28;16.70;99.90
33492;DHT22;20010;51.488;7.232;2022-07-29T05:45:55;16.80;99.90
33492;DHT22;20010;51.488;7.232;2022-07-29T05:48:23;16.80;99.90
33492;DHT22;20010;51.488;7.232;2022-07-29T05:50:50;16.80;99.90
33492;DHT22;20010;51.488;7.232;2022-07-29T05:53:17;16.80;99.90
33492;DHT22;20010;51.488;7.232;2022-07-29T05:55:49;16.80;99.90
33492;DHT22;20010;51.488;7.232;2022-07-29T05:58:16;16.80;99.90
33492;DHT22;20010;51.488;7.232;2022-07-29T06:00:44;16.90;99.90
33492;DHT22;20010;51.488;7.232;2022-07-29T06:03:11;16.90;99.90
33492;DHT22;20010;51.488;7.232;2022-07-29T06:05:38;16.90;99.90
33492;DHT22;20010;51.488;7.232;2022-07-29T06:08:05;16.90;99.90
33492;DHT22;20010;51.488;7.232;2022-07-29T06:10:35;16.90;99.90
33492;DHT22;20010;51.488;7.232;2022-07-29T06:13:02;17.00;99.90
33492;DHT22;20010;51.488;7.232;2022-07-29T06:15:29;17.00;99.90
33492;DHT22;20010;51.488;7.232;2022-07-29T06:17:56;17.00;99.90
33492;DHT22;20010;51.488;7.232;2022-07-29T06:20:30;17.00;99.90
33492;DHT22;20010;51.488;7.232;2022-07-29T06:22:58;17.10;99.90
33492;DHT22;20010;51.488;7.232;2022-07-29T06:25:25;17.10;99.90
33492;DHT22;20010;51.488;7.232;2022-07-29T06:27:52;17.20;99.90
33492;DHT22;20010;51.488;7.232;2022-07-29T06:30:19;17.20;99.90
33492;DHT22;20010;51.488;7.232;2022-07-29T06:32:46;17.30;99.90
33492;DHT22;20010;51.488;7.232;2022-07-29T06:35:13;17.40;99.90
33492;DHT22;20010;51.488;7.232;2022-07-29T06:38:00;17.40;99.90
33492;DHT22;20010;51.488;7.232;2022-07-29T06:40:27;17.40;99.90
33492;DHT22;20010;51.488;7.232;2022-07-29T06:45:55;17.50;99.90
33492;DHT22;20010;51.488;7.232;2022-07-29T06:48:22;17.60;99.90
33492;DHT22;20010;51.488;7.232;2022-07-29T06:50:49;17.60;99.90
33492;DHT22;20010;51.488;7.232;2022-07-29T06:53:16;17.70;99.90
33492;DHT22;20010;51.488;7.232;2022-07-29T06:55:43;17.70;99.90
33492;DHT22;20010;51.488;7.232;2022-07-29T06:58:10;17.80;99.90
33492;DHT22;20010;51.488;7.232;2022-07-29T07:00:37;17.80;99.90
33492;DHT22;20010;51.488;7.232;2022-07-29T07:03:04;17.90;99.90
33492;DHT22;20010;51.488;7.232;2022-07-29T07:05:31;17.90;99.90
33492;DHT22;20010;51.488;7.232;2022-07-29T07:07:58;18.00;99.90
33492;DHT22;20010;51.488;7.232;2022-07-29T07:10:25;18.00;99.90
33492;DHT22;20010;51.488;7.232;2022-07-29T07:12:51;17.90;99.90
33492;DHT22;20010;51.488;7.232;2022-07-29T07:15:18;17.90;99.90
33492;DHT22;20010;51.488;7.232;2022-07-29T07:18:05;17.80;99.90
33492;DHT22;20010;51.488;7.232;2022-07-29T07:20:35;17.80;99.90
33492;DHT22;20010;51.488;7.232;2022-07-29T07:23:03;17.90;99.90
33492;DHT22;20010;51.488;7.232;2022-07-29T07:25:30;18.00;99.90
33492;DHT22;20010;51.488;7.232;2022-07-29T07:27:57;18.10;99.90
33492;DHT22;20010;51.488;7.232;2022-07-29T07:30:24;18.20;99.90
33492;DHT22;20010;51.488;7.232;2022-07-29T07:32:50;18.20;99.90
33492;DHT22;20010;51.488;7.232;2022-07-29T07:35:17;18.30;99.90
33492;DHT22;20010;51.488;7.232;2022-07-29T07:37:44;18.30;99.90
33492;DHT22;20010;51.488;7.232;2022-07-29T07:40:12;18.40;99.90
33492;DHT22;20010;51.488;7.232;2022-07-29T07:42:44;18.40;99.90
33492;DHT22;20010;51.488;7.232;2022-07-29T07:45:11;18.40;99.90
33492;DHT22;20010;51.488;7.232;2022-07-29T07:47:42;18.40;99.90
33492;DHT22;20010;51.488;7.232;2022-07-29T07:50:10;18.50;99.90
33492;DHT22;20010;51.488;7.232;2022-07-29T07:52:52;18.40;99.90
33492;DHT22;20010;51.488;7.232;2022-07-29T07:55:21;18.40;99.90
33492;DHT22;20010;51.488;7.232;2022-07-29T07:57:47;18.40;99.90
33492;DHT22;20010;51.488;7.232;2022-07-29T08:00:15;18.50;99.90
33492;DHT22;20010;51.488;7.232;2022-07-29T08:02:43;18.50;99.90
33492;DHT22;20010;51.488;7.232;2022-07-29T08:05:12;18.60;99.90
33492;DHT22;20010;51.488;7.232;2022-07-29T08:07:45;18.70;99.90
33492;DHT22;20010;51.488;7.232;2022-07-29T08:10:18;18.80;99.90
33492;DHT22;20010;51.488;7.232;2022-07-29T08:13:07;18.80;99.90
33492;DHT22;20010;51.488;7.232;2022-07-29T08:15:35;18.90;99.90
33492;DHT22;20010;51.488;7.232;2022-07-29T08:18:02;18.90;99.90
33492;DHT22;20010;51.488;7.232;2022-07-29T08:20:35;18.80;99.90
33492;DHT22;20010;51.488;7.232;2022-07-29T08:23:03;18.80;99.90
33492;DHT22;20010;51.488;7.232;2022-07-29T08:25:31;18.80;99.90
33492;DHT22;20010;51.488;7.232;2022-07-29T08:28:03;18.90;99.90
33492;DHT22;20010;51.488;7.232;2022-07-29T08:30:30;19.00;99.90
33492;DHT22;20010;51.488;7.232;2022-07-29T08:32:56;19.00;99.90
33492;DHT22;20010;51.488;7.232;2022-07-29T08:35:24;19.00;99.90
33492;DHT22;20010;51.488;7.232;2022-07-29T08:37:52;19.10;99.90
33492;DHT22;20010;51.488;7.232;2022-07-29T08:40:20;19.10;99.90
33492;DHT22;20010;51.488;7.232;2022-07-29T08:42:58;19.00;99.90
33492;DHT22;20010;51.488;7.232;2022-07-29T08:45:25;19.00;99.90
33492;DHT22;20010;51.488;7.232;2022-07-29T08:47:52;19.00;99.90
33492;DHT22;20010;51.488;7.232;2022-07-29T08:50:19;19.00;99.90
33492;DHT22;20010;51.488;7.232;2022-07-29T08:52:46;19.00;99.90
33492;DHT22;20010;51.488;7.232;2022-07-29T08:55:15;19.00;99.90
33492;DHT22;20010;51.488;7.232;2022-07-29T08:57:47;19.00;99.90
33492;DHT22;20010;51.488;7.232;2022-07-29T09:00:23;19.00;99.90
33492;DHT22;20010;51.488;7.232;2022-07-29T09:02:56;19.00;99.90
33492;DHT22;20010;51.488;7.232;2022-07-29T09:05:24;18.90;99.90
33492;DHT22;20010;51.488;7.232;2022-07-29T09:07:52;18.90;99.90
33492;DHT22;20010;51.488;7.232;2022-07-29T09:10:19;18.90;99.90
33492;DHT22;20010;51.488;7.232;2022-07-29T09:12:46;18.80;99.90
33492;DHT22;20010;51.488;7.232;2022-07-29T09:15:15;18.80;99.90
33492;DHT22;20010;51.488;7.232;2022-07-29T09:17:44;18.80;99.90
33492;DHT22;20010;51.488;7.232;2022-07-29T09:20:14;18.70;99.90
33492;DHT22;20010;51.488;7.232;2022-07-29T09:22:41;18.60;99.90
33492;DHT22;20010;51.488;7.232;2022-07-29T09:25:11;18.50;99.90
33492;DHT22;20010;51.488;7.232;2022-07-29T09:27:38;18.50;99.90
33492;DHT22;20010;51.488;7.232;2022-07-29T09:30:07;18.40;99.90
33492;DHT22;20010;51.488;7.232;2022-07-29T09:32:57;18.40;99.90
33492;DHT22;20010;51.488;7.232;2022-07-29T09:35:25;18.20;99.90
33492;DHT22;20010;51.488;7.232;2022-07-29T09:37:53;18.20;99.90
33492;DHT22;20010;51.488;7.232;2022-07-29T09:40:26;18.10;99.90
33492;DHT22;20010;51.488;7.232;2022-07-29T09:42:53;18.00;99.90
33492;DHT22;20010;51.488;7.232;2022-07-29T09:45:31;17.90;99.90
33492;DHT22;20010;51.488;7.232;2022-07-29T09:47:59;17.90;99.90
33492;DHT22;20010;51.488;7.232;2022-07-29T09:50:39;18.00;99.90
33492;DHT22;20010;51.488;7.232;2022-07-29T09:53:07;18.10;99.90
33492;DHT22;20010;51.488;7.232;2022-07-29T09:55:51;18.10;99.90
33492;DHT22;20010;51.488;7.232;2022-07-29T09:58:20;18.20;99.90
33492;DHT22;20010;51.488;7.232;2022-07-29T10:00:49;18.20;99.90
33492;DHT22;20010;51.488;7.232;2022-07-29T10:03:17;18.20;99.90
33492;DHT22;20010;51.488;7.232;2022-07-29T10:05:45;18.30;99.90
33492;DHT22;20010;51.488;7.232;2022-07-29T10:08:12;18.30;99.90
33492;DHT22;20010;51.488;7.232;2022-07-29T10:10:41;18.40;99.90
33492;DHT22;20010;51.488;7.232;2022-07-29T10:13:13;18.40;99.90
33492;DHT22;20010;51.488;7.232;2022-07-29T10:15:43;18.40;99.90
33492;DHT22;20010;51.488;7.232;2022-07-29T10:18:13;18.50;99.90
33492;DHT22;20010;51.488;7.232;2022-07-29T10:20:41;18.50;99.90
33492;DHT22;20010;51.488;7.232;2022-07-29T10:23:09;18.50;99.90
33492;DHT22;20010;51.488;7.232;2022-07-29T10:25:36;18.50;99.90
33492;DHT22;20010;51.488;7.232;2022-07-29T10:28:05;18.50;99.90
33492;DHT22;20010;51.488;7.232;2022-07-29T10:30:32;18.50;99.90
33492;DHT22;20010;51.488;7.232;2022-07-29T10:36:07;18.50;99.90
33492;DHT22;20010;51.488;7.232;2022-07-29T10:44:40;18.60;99.90
33492;DHT22;20010;51.488;7.232;2022-07-29T10:47:19;18.60;99.90
33492;DHT22;20010;51.488;7.232;2022-07-29T10:49:57;18.70;99.90
33492;DHT22;20010;51.488;7.232;2022-07-29T10:55:37;18.70;99.90
33492;DHT22;20010;51.488;7.232;2022-07-29T10:58:21;18.70;99.90
33492;DHT22;20010;51.488;7.232;2022-07-29T11:00:51;18.70;99.90
33492;DHT22;20010;51.488;7.232;2022-07-29T11:06:15;18.70;99.90
33492;DHT22;20010;51.488;7.232;2022-07-29T11:08:43;18.70;99.90
33492;DHT22;20010;51.488;7.232;2022-07-29T11:13:55;18.70;99.90
33492;DHT22;20010;51.488;7.232;2022-07-29T11:16:23;18.70;99.90
33492;DHT22;20010;51.488;7.232;2022-07-29T11:21:44;18.50;99.90
33492;DHT22;20010;51.488;7.232;2022-07-29T11:24:26;18.50;99.90
33492;DHT22;20010;51.488;7.232;2022-07-29T11:29:38;18.50;99.90
33492;DHT22;20010;51.488;7.232;2022-07-29T11:32:13;18.50;99.90
33492;DHT22;20010;51.488;7.232;2022-07-29T11:35:10;18.50;99.90
33492;DHT22;20010;51.488;7.232;2022-07-29T11:46:45;19.00;99.90
33492;DHT22;20010;51.488;7.232;2022-07-29T11:49:21;19.10;99.90
33492;DHT22;20010;51.488;7.232;2022-07-29T11:51:59;19.20;99.90
33492;DHT22;20010;51.488;7.232;2022-07-29T11:54:48;19.30;99.90
33492;DHT22;20010;51.488;7.232;2022-07-29T11:57:26;19.50;99.90
33492;DHT22;20010;51.488;7.232;2022-07-29T12:00:07;19.50;99.90
33492;DHT22;20010;51.488;7.232;2022-07-29T12:02:41;19.60;99.90
33492;DHT22;20010;51.488;7.232;2022-07-29T12:05:14;19.60;99.90
33492;DHT22;20010;51.488;7.232;2022-07-29T12:07:49;19.80;99.90
33492;DHT22;20010;51.488;7.232;2022-07-29T12:10:18;20.00;99.90
33492;DHT22;20010;51.488;7.232;2022-07-29T12:12:56;20.20;99.90
33492;DHT22;20010;51.488;7.232;2022-07-29T12:15:24;20.30;99.90
33492;DHT22;20010;51.488;7.232;2022-07-29T12:18:17;20.40;99.90
33492;DHT22;20010;51.488;7.232;2022-07-29T12:20:46;20.60;99.90
33492;DHT22;20010;51.488;7.232;2022-07-29T12:23:14;20.60;99.90
33492;DHT22;20010;51.488;7.232;2022-07-29T12:25:44;20.60;99.90
33492;DHT22;20010;51.488;7.232;2022-07-29T12:28:15;20.70;99.90
33492;DHT22;20010;51.488;7.232;2022-07-29T12:30:53;20.70;99.90
33492;DHT22;20010;51.488;7.232;2022-07-29T12:33:23;20.80;99.90
33492;DHT22;20010;51.488;7.232;2022-07-29T12:35:53;20.90;99.90
33492;DHT22;20010;51.488;7.232;2022-07-29T12:38:40;20.90;99.90
33492;DHT22;20010;51.488;7.232;2022-07-29T12:41:08;21.00;99.90
33492;DHT22;20010;51.488;7.232;2022-07-29T12:43:35;21.30;99.90
33492;DHT22;20010;51.488;7.232;2022-07-29T12:46:13;21.50;99.90
33492;DHT22;20010;51.488;7.232;2022-07-29T12:48:42;21.90;99.90
33492;DHT22;20010;51.488;7.232;2022-07-29T12:51:10;22.20;99.90
33492;DHT22;20010;51.488;7.232;2022-07-29T12:53:39;22.40;99.90
33492;DHT22;20010;51.488;7.232;2022-07-29T12:56:06;22.80;99.90
33492;DHT22;20010;51.488;7.232;2022-07-29T12:59:29;23.10;99.90
33492;DHT22;20010;51.488;7.232;2022-07-29T13:01:56;23.40;99.90
33492;DHT22;20010;51.488;7.232;2022-07-29T13:04:33;23.60;99.90
33492;DHT22;20010;51.488;7.232;2022-07-29T13:07:03;23.80;99.90
33492;DHT22;20010;51.488;7.232;2022-07-29T13:09:43;23.80;99.90
33492;DHT22;20010;51.488;7.232;2022-07-29T13:12:13;24.10;99.90
33492;DHT22;20010;51.488;7.232;2022-07-29T13:14:45;24.10;99.90
33492;DHT22;20010;51.488;7.232;2022-07-29T13:17:16;24.00;99.90
33492;DHT22;20010;51.488;7.232;2022-07-29T13:19:44;24.00;99.90
33492;DHT22;20010;51.488;7.232;2022-07-29T13:22:16;23.80;99.90
33492;DHT22;20010;51.488;7.232;2022-07-29T13:24:55;23.70;99.90
33492;DHT22;20010;51.488;7.232;2022-07-29T13:27:27;23.70;99.90
33492;DHT22;20010;51.488;7.232;2022-07-29T13:29:57;23.70;99.90
33492;DHT22;20010;51.488;7.232;2022-07-29T13:32:25;23.70;99.90
33492;DHT22;20010;51.488;7.232;2022-07-29T13:34:59;23.70;99.90
33492;DHT22;20010;51.488;7.232;2022-07-29T13:37:31;23.90;99.90
33492;DHT22;20010;51.488;7.232;2022-07-29T13:40:01;24.00;99.90
33492;DHT22;20010;51.488;7.232;2022-07-29T13:42:29;24.20;99.90
33492;DHT22;20010;51.488;7.232;2022-07-29T13:44:57;24.30;99.90
33492;DHT22;20010;51.488;7.232;2022-07-29T13:47:24;24.40;99.90
33492;DHT22;20010;51.488;7.232;2022-07-29T13:49:59;24.30;99.90
33492;DHT22;20010;51.488;7.232;2022-07-29T13:52:25;24.10;99.90
33492;DHT22;20010;51.488;7.232;2022-07-29T13:54:52;24.00;99.90
33492;DHT22;20010;51.488;7.232;2022-07-29T13:57:22;24.00;99.90
33492;DHT22;20010;51.488;7.232;2022-07-29T13:59:48;24.00;99.90
33492;DHT22;20010;51.488;7.232;2022-07-29T14:02:20;24.10;99.90
33492;DHT22;20010;51.488;7.232;2022-07-29T14:04:54;24.20;99.90
33492;DHT22;20010;51.488;7.232;2022-07-29T14:07:22;24.30;99.90
33492;DHT22;20010;51.488;7.232;2022-07-29T14:09:49;24.40;99.90
33492;DHT22;20010;51.488;7.232;2022-07-29T14:12:16;24.60;99.90
33492;DHT22;20010;51.488;7.232;2022-07-29T14:14:43;24.80;99.90
33492;DHT22;20010;51.488;7.232;2022-07-29T14:17:13;25.20;99.90
33492;DHT22;20010;51.488;7.232;2022-07-29T14:19:40;25.50;99.90
33492;DHT22;20010;51.488;7.232;2022-07-29T14:22:08;25.70;99.90
33492;DHT22;20010;51.488;7.232;2022-07-29T14:24:36;25.80;99.90
33492;DHT22;20010;51.488;7.232;2022-07-29T14:27:05;25.50;99.90
33492;DHT22;20010;51.488;7.232;2022-07-29T14:29:33;25.70;99.90
33492;DHT22;20010;51.488;7.232;2022-07-29T14:32:05;25.90;99.90
33492;DHT22;20010;51.488;7.232;2022-07-29T14:34:34;26.20;99.90
33492;DHT22;20010;51.488;7.232;2022-07-29T14:37:02;26.60;99.90
33492;DHT22;20010;51.488;7.232;2022-07-29T14:39:31;26.80;99.90
33492;DHT22;20010;51.488;7.232;2022-07-29T14:41:58;26.70;98.80
33492;DHT22;20010;51.488;7.232;2022-07-29T14:44:26;26.90;99.00
33492;DHT22;20010;51.488;7.232;2022-07-29T14:46:58;27.10;99.20
33492;DHT22;20010;51.488;7.232;2022-07-29T14:49:27;27.20;97.80
33492;DHT22;20010;51.488;7.232;2022-07-29T14:51:53;27.10;97.70
33492;DHT22;20010;51.488;7.232;2022-07-29T14:54:21;27.20;97.30
33492;DHT22;20010;51.488;7.232;2022-07-29T14:56:48;27.40;97.10
33492;DHT22;20010;51.488;7.232;2022-07-29T14:59:17;27.40;96.60
33492;DHT22;20010;51.488;7.232;2022-07-29T15:01:44;27.70;96.40
33492;DHT22;20010;51.488;7.232;2022-07-29T15:04:10;27.50;95.30
33492;DHT22;20010;51.488;7.232;2022-07-29T15:06:37;27.30;96.20
33492;DHT22;20010;51.488;7.232;2022-07-29T15:09:04;27.60;96.20
33492;DHT22;20010;51.488;7.232;2022-07-29T15:11:31;27.60;96.30
33492;DHT22;20010;51.488;7.232;2022-07-29T15:14:05;27.80;95.20
33492;DHT22;20010;51.488;7.232;2022-07-29T15:16:34;27.80;93.30
33492;DHT22;20010;51.488;7.232;2022-07-29T15:19:01;27.40;94.20
33492;DHT22;20010;51.488;7.232;2022-07-29T15:21:28;27.40;94.10
33492;DHT22;20010;51.488;7.232;2022-07-29T15:23:55;27.60;94.20
33492;DHT22;20010;51.488;7.232;2022-07-29T15:26:21;27.90;94.60
33492;DHT22;20010;51.488;7.232;2022-07-29T15:28:48;28.10;94.70
33492;DHT22;20010;51.488;7.232;2022-07-29T15:31:15;28.30;93.10
33492;DHT22;20010;51.488;7.232;2022-07-29T15:33:42;28.60;94.50
33492;DHT22;20010;51.488;7.232;2022-07-29T15:36:09;28.70;92.40
33492;DHT22;20010;51.488;7.232;2022-07-29T15:38:58;28.70;92.60
33492;DHT22;20010;51.488;7.232;2022-07-29T15:41:24;28.80;91.70
33492;DHT22;20010;51.488;7.232;2022-07-29T15:43:51;28.80;91.80
33492;DHT22;20010;51.488;7.232;2022-07-29T15:46:19;28.40;92.50
33492;DHT22;20010;51.488;7.232;2022-07-29T15:49:06;27.90;92.90
33492;DHT22;20010;51.488;7.232;2022-07-29T15:51:33;27.40;94.10
33492;DHT22;20010;51.488;7.232;2022-07-29T15:54:01;27.10;94.30
33492;DHT22;20010;51.488;7.232;2022-07-29T15:56:30;27.10;95.30
33492;DHT22;20010;51.488;7.232;2022-07-29T15:58:57;27.20;94.90
33492;DHT22;20010;51.488;7.232;2022-07-29T16:01:24;27.10;94.90
33492;DHT22;20010;51.488;7.232;2022-07-29T16:03:51;27.00;94.60
33492;DHT22;20010;51.488;7.232;2022-07-29T16:06:18;26.80;94.40
33492;DHT22;20010;51.488;7.232;2022-07-29T16:08:45;26.80;95.00
33492;DHT22;20010;51.488;7.232;2022-07-29T16:11:12;26.90;95.60
33492;DHT22;20010;51.488;7.232;2022-07-29T16:13:39;27.10;94.90
33492;DHT22;20010;51.488;7.232;2022-07-29T16:16:06;27.20;94.10
33492;DHT22;20010;51.488;7.232;2022-07-29T16:18:32;27.60;94.20
33492;DHT22;20010;51.488;7.232;2022-07-29T16:21:00;27.80;94.30
33492;DHT22;20010;51.488;7.232;2022-07-29T16:23:27;28.00;93.90
33492;DHT22;20010;51.488;7.232;2022-07-29T16:25:53;28.10;93.30
33492;DHT22;20010;51.488;7.232;2022-07-29T16:28:27;28.30;92.40
33492;DHT22;20010;51.488;7.232;2022-07-29T16:30:54;28.30;93.10
33492;DHT22;20010;51.488;7.232;2022-07-29T16:33:21;28.40;93.60
33492;DHT22;20010;51.488;7.232;2022-07-29T16:35:49;28.50;93.00
33492;DHT22;20010;51.488;7.232;2022-07-29T16:38:16;28.50;92.80
33492;DHT22;20010;51.488;7.232;2022-07-29T16:40:44;28.50;92.10